createdAt,value
2023-01-26T00:01:19.358Z,2.10
2023-01-26T00:03:46.407Z,2.10
2023-01-26T00:06:15.968Z,1.80
2023-01-26T00:08:45.921Z,1.80
2023-01-26T00:11:15.655Z,1.90
2023-01-26T00:13:43.304Z,1.80
2023-01-26T00:16:12.195Z,1.80
2023-01-26T00:18:40.098Z,1.90
2023-01-26T00:21:08.509Z,2.00
2023-01-26T00:23:35.831Z,1.90
2023-01-26T00:26:05.985Z,1.90
2023-01-26T00:28:32.953Z,1.80
2023-01-26T00:31:12.962Z,1.60
2023-01-26T00:33:39.692Z,1.60
2023-01-26T00:36:06.819Z,1.70
2023-01-26T00:38:33.669Z,1.70
2023-01-26T00:41:01.873Z,1.80
2023-01-26T00:43:28.542Z,1.60
2023-01-26T00:45:55.297Z,1.70
2023-01-26T00:48:24.478Z,1.70
2023-01-26T00:50:52.331Z,1.60
2023-01-26T00:53:19.481Z,1.60
2023-01-26T00:55:46.184Z,1.70
2023-01-26T00:58:12.919Z,1.50
2023-01-26T01:00:39.923Z,1.40
2023-01-26T01:03:07.368Z,1.50
2023-01-26T01:05:34.433Z,1.30
2023-01-26T01:08:01.859Z,1.40
2023-01-26T01:10:28.590Z,1.50
2023-01-26T01:12:56.578Z,1.50
2023-01-26T01:15:24.161Z,1.40
2023-01-26T01:17:51.283Z,1.50
2023-01-26T01:20:17.986Z,1.50
2023-01-26T01:22:46.778Z,1.50
2023-01-26T01:25:13.582Z,1.40
2023-01-26T01:27:40.396Z,1.30
2023-01-26T01:30:08.560Z,1.20
2023-01-26T01:32:39.961Z,1.40
2023-01-26T01:35:07.795Z,1.60
2023-01-26T01:37:34.740Z,1.50
2023-01-26T01:40:01.482Z,1.40
2023-01-26T01:42:28.233Z,1.60
2023-01-26T01:45:22.851Z,1.70
2023-01-26T01:47:50.106Z,1.60
2023-01-26T01:50:18.201Z,1.40
2023-01-26T01:52:45.581Z,1.30
2023-01-26T01:55:16.467Z,1.40
2023-01-26T01:57:52.412Z,1.20
2023-01-26T02:00:22.142Z,1.20
2023-01-26T02:03:11.497Z,1.30
2023-01-26T02:06:02.720Z,1.50
2023-01-26T02:08:40.619Z,1.50
2023-01-26T02:11:12.812Z,1.60
2023-01-26T02:13:44.339Z,1.50
2023-01-26T02:16:11.107Z,1.30
2023-01-26T02:18:38.407Z,1.40
2023-01-26T02:21:12.587Z,1.40
2023-01-26T02:24:04.103Z,1.40
2023-01-26T02:26:33.548Z,1.20
2023-01-26T02:29:01.813Z,1.30
2023-01-26T02:31:29.498Z,1.30
2023-01-26T02:33:56.844Z,1.10
2023-01-26T02:36:29.600Z,1.20
2023-01-26T02:39:34.512Z,1.30
2023-01-26T02:42:20.127Z,1.40
2023-01-26T02:44:46.868Z,1.50
2023-01-26T02:47:16.254Z,1.50
2023-01-26T02:49:50.571Z,1.50
2023-01-26T02:52:21.758Z,1.30
2023-01-26T02:55:14.162Z,1.30
2023-01-26T02:57:41.485Z,1.30
2023-01-26T03:00:14.620Z,1.20
2023-01-26T03:02:42.075Z,1.20
2023-01-26T03:05:09.035Z,1.20
2023-01-26T03:07:36.152Z,1.10
2023-01-26T03:10:04.525Z,1.10
2023-01-26T03:12:31.428Z,1.00
2023-01-26T03:15:16.651Z,1.20
2023-01-26T03:17:44.540Z,1.30
2023-01-26T03:20:29.991Z,1.30
2023-01-26T03:23:15.888Z,1.10
2023-01-26T03:26:02.000Z,1.20
2023-01-26T03:28:32.393Z,1.20
2023-01-26T03:30:59.188Z,1.40
2023-01-26T03:33:26.282Z,1.30
2023-01-26T03:35:54.905Z,1.30
2023-01-26T03:38:22.695Z,1.20
2023-01-26T03:41:15.422Z,1.20
2023-01-26T03:44:00.749Z,1.30
2023-01-26T03:46:45.962Z,1.40
2023-01-26T03:49:31.536Z,1.30
2023-01-26T03:52:17.458Z,1.50
2023-01-26T03:55:02.704Z,1.40
2023-01-26T03:57:30.841Z,1.40
2023-01-26T03:59:58.452Z,1.20
2023-01-26T04:02:45.361Z,1.00
2023-01-26T04:05:30.555Z,0.80
2023-01-26T04:08:26.922Z,1.00
2023-01-26T04:11:01.979Z,1.20
2023-01-26T04:13:48.206Z,1.30
2023-01-26T04:16:42.115Z,1.30
2023-01-26T04:19:27.597Z,1.30
2023-01-26T04:21:54.377Z,1.10
2023-01-26T04:24:25.016Z,1.00
2023-01-26T04:26:55.625Z,0.90
2023-01-26T04:29:26.267Z,0.80
2023-01-26T04:31:53.082Z,0.90
2023-01-26T04:34:21.993Z,1.00
2023-01-26T04:36:48.900Z,1.30
2023-01-26T04:39:16.665Z,1.30
2023-01-26T04:41:47.127Z,1.20
2023-01-26T04:44:16.768Z,1.30
2023-01-26T04:46:43.575Z,1.40
2023-01-26T04:49:12.936Z,1.20
2023-01-26T04:51:39.827Z,1.20
2023-01-26T04:54:06.952Z,1.20
2023-01-26T04:56:37.399Z,1.30
2023-01-26T04:59:06.210Z,1.30
2023-01-26T05:01:34.329Z,1.20
2023-01-26T05:04:04.549Z,1.10
2023-01-26T05:06:32.586Z,1.20
2023-01-26T05:08:59.764Z,1.30
2023-01-26T05:11:27.576Z,1.40
2023-01-26T05:14:05.922Z,1.50
2023-01-26T05:16:51.481Z,1.40
2023-01-26T05:19:41.192Z,1.30
2023-01-26T05:22:18.027Z,1.50
2023-01-26T05:25:16.684Z,1.50
2023-01-26T05:27:53.663Z,1.50
2023-01-26T05:30:20.813Z,1.50
2023-01-26T05:32:49.544Z,1.50
2023-01-26T05:35:16.230Z,1.50
2023-01-26T05:37:43.199Z,1.40
2023-01-26T05:40:11.303Z,1.40
2023-01-26T05:42:38.584Z,1.30
2023-01-26T05:45:18.240Z,1.30
2023-01-26T05:47:46.091Z,1.50
2023-01-26T05:50:14.385Z,1.50
2023-01-26T05:52:43.716Z,1.20
2023-01-26T05:55:10.400Z,1.10
2023-01-26T05:57:37.327Z,1.30
2023-01-26T06:00:07.956Z,1.30
2023-01-26T06:02:40.911Z,1.40
2023-01-26T06:05:11.092Z,1.40
2023-01-26T06:07:38.139Z,1.50
2023-01-26T06:10:12.020Z,1.40
2023-01-26T06:12:53.858Z,1.40
2023-01-26T06:15:36.650Z,1.50
2023-01-26T06:18:03.429Z,1.50
2023-01-26T06:20:30.336Z,1.50
2023-01-26T06:23:01.442Z,1.40
2023-01-26T06:25:31.020Z,1.40
2023-01-26T06:27:58.984Z,1.60
2023-01-26T06:30:30.374Z,1.60
2023-01-26T06:33:03.363Z,1.60
2023-01-26T06:35:37.684Z,1.50
2023-01-26T06:38:15.999Z,1.50
2023-01-26T06:40:49.754Z,1.50
2023-01-26T06:43:16.664Z,1.50
2023-01-26T06:45:43.691Z,1.40
2023-01-26T06:48:11.345Z,1.30
2023-01-26T06:50:42.452Z,1.50
2023-01-26T06:53:33.456Z,1.40
2023-01-26T06:56:23.253Z,1.40
2023-01-26T06:59:23.647Z,1.30
2023-01-26T07:05:12.848Z,1.50
2023-01-26T07:07:41.325Z,1.50
2023-01-26T07:10:08.969Z,1.60
2023-01-26T07:12:45.154Z,1.70
2023-01-26T07:15:42.295Z,1.60
2023-01-26T07:21:26.026Z,1.70
2023-01-26T07:24:17.512Z,1.80
2023-01-26T07:27:05.268Z,1.60
2023-01-26T07:30:18.049Z,1.50
2023-01-26T07:33:19.007Z,1.50
2023-01-26T07:36:11.763Z,1.40
2023-01-26T07:38:48.744Z,1.30
2023-01-26T07:44:59.976Z,1.50
2023-01-26T07:47:44.482Z,1.40
2023-01-26T07:53:33.756Z,1.30
2023-01-26T07:56:26.936Z,1.30
2023-01-26T07:59:02.878Z,1.50
2023-01-26T08:01:37.237Z,1.60
2023-01-26T08:04:18.174Z,1.50
2023-01-26T08:06:56.184Z,1.70
2023-01-26T08:09:27.036Z,1.70
2023-01-26T08:15:30.170Z,1.50
2023-01-26T08:18:28.419Z,1.60
2023-01-26T08:20:59.089Z,1.50
2023-01-26T08:23:28.641Z,1.50
2023-01-26T08:25:56.968Z,1.40
2023-01-26T08:28:24.613Z,1.50
2023-01-26T08:30:51.571Z,1.70
2023-01-26T08:33:21.073Z,1.80
2023-01-26T08:36:10.746Z,1.80
2023-01-26T08:38:45.548Z,1.80
2023-01-26T08:41:18.331Z,1.80
2023-01-26T08:43:48.867Z,1.70
2023-01-26T08:46:30.105Z,1.70
2023-01-26T08:49:04.286Z,1.70
2023-01-26T08:51:45.853Z,1.80
2023-01-26T08:54:51.151Z,1.90
2023-01-26T08:57:24.384Z,2.00
2023-01-26T08:59:55.019Z,1.90
2023-01-26T09:02:29.132Z,1.90
2023-01-26T09:05:09.491Z,1.70
2023-01-26T09:07:53.559Z,1.60
2023-01-26T09:10:24.235Z,1.50
2023-01-26T09:13:18.423Z,1.40
2023-01-26T09:15:52.341Z,1.50
2023-01-26T09:18:25.266Z,1.50
2023-01-26T09:21:02.888Z,1.50
2023-01-26T09:23:34.512Z,1.40
2023-01-26T09:26:10.405Z,1.50
2023-01-26T09:29:17.519Z,1.50
2023-01-26T09:31:56.380Z,1.70
2023-01-26T09:34:50.148Z,1.70
2023-01-26T09:40:35.570Z,1.60
2023-01-26T09:44:01.567Z,1.60
2023-01-26T09:47:35.354Z,1.50
2023-01-26T09:50:23.201Z,1.60
2023-01-26T09:53:37.596Z,1.40
2023-01-26T09:56:05.382Z,1.40
2023-01-26T09:58:39.420Z,1.40
2023-01-26T10:01:21.007Z,1.60
2023-01-26T10:04:16.582Z,1.70
2023-01-26T10:08:47.831Z,1.70
2023-01-26T10:13:24.416Z,1.70
2023-01-26T10:16:30.441Z,1.70
2023-01-26T10:19:18.990Z,1.80
2023-01-26T10:21:54.231Z,1.80
2023-01-26T10:30:22.623Z,1.50
2023-01-26T10:32:54.695Z,1.40
2023-01-26T10:35:25.303Z,1.30
2023-01-26T10:38:06.783Z,1.50
2023-01-26T10:40:48.869Z,1.60
2023-01-26T10:43:20.473Z,1.60
2023-01-26T10:46:14.763Z,1.60
2023-01-26T10:48:56.298Z,1.70
2023-01-26T10:51:31.538Z,1.80
2023-01-26T10:54:28.740Z,2.00
2023-01-26T10:57:00.966Z,2.10
2023-01-26T10:59:48.157Z,2.10
2023-01-26T11:02:14.779Z,2.10
2023-01-26T11:04:42.124Z,2.30
2023-01-26T11:07:27.664Z,2.30
2023-01-26T11:09:58.865Z,2.40
2023-01-26T11:12:26.776Z,2.50
2023-01-26T11:15:06.594Z,2.40
2023-01-26T11:18:00.285Z,2.30
2023-01-26T11:20:50.033Z,2.50
2023-01-26T11:23:39.408Z,2.60
2023-01-26T11:26:12.710Z,2.60
2023-01-26T11:28:58.409Z,2.30
2023-01-26T11:31:31.295Z,2.30
2023-01-26T11:33:58.065Z,2.30
2023-01-26T11:36:56.206Z,2.50
2023-01-26T11:39:41.283Z,2.50
2023-01-26T11:42:20.393Z,2.20
2023-01-26T11:44:59.678Z,2.20
2023-01-26T11:47:45.788Z,2.00
2023-01-26T11:50:28.782Z,2.10
2023-01-26T11:53:17.359Z,2.20
2023-01-26T11:55:56.961Z,2.10
2023-01-26T11:58:39.928Z,1.90
2023-01-26T12:01:21.191Z,1.90
2023-01-26T12:03:50.575Z,2.10
2023-01-26T12:06:27.975Z,2.10
2023-01-26T12:09:05.345Z,2.00
2023-01-26T12:11:49.721Z,2.10
2023-01-26T12:14:23.466Z,2.30
2023-01-26T12:17:42.039Z,2.30
2023-01-26T12:20:29.500Z,2.00
2023-01-26T12:23:08.334Z,1.90
2023-01-26T12:25:46.800Z,2.00
2023-01-26T12:28:25.294Z,2.10
2023-01-26T12:31:18.722Z,2.10
2023-01-26T12:33:47.097Z,2.10
2023-01-26T12:36:45.274Z,2.10
2023-01-26T12:39:38.529Z,2.10
2023-01-26T12:42:42.969Z,2.30
2023-01-26T12:45:31.216Z,2.30
2023-01-26T12:48:36.758Z,2.30
2023-01-26T12:51:19.244Z,2.20
2023-01-26T12:53:49.195Z,2.20
2023-01-26T12:56:26.279Z,2.10
2023-01-26T12:59:02.408Z,1.70
2023-01-26T13:01:44.185Z,1.80
2023-01-26T13:04:15.062Z,1.70
2023-01-26T13:06:43.418Z,1.80
2023-01-26T13:09:22.029Z,1.70
2023-01-26T13:11:53.678Z,1.80
2023-01-26T13:15:00.217Z,1.80
2023-01-26T13:17:27.804Z,1.60
2023-01-26T13:20:00.448Z,1.50
2023-01-26T13:22:27.908Z,1.50
2023-01-26T13:25:20.115Z,1.40
2023-01-26T13:27:57.088Z,1.50
2023-01-26T13:30:27.845Z,1.50
2023-01-26T13:33:21.505Z,1.70
2023-01-26T13:35:50.626Z,1.80
2023-01-26T13:38:38.912Z,2.10
2023-01-26T13:41:21.131Z,2.00
2023-01-26T13:44:24.154Z,1.90
2023-01-26T13:47:06.540Z,1.90
2023-01-26T13:49:45.181Z,1.90
2023-01-26T13:52:22.178Z,1.90
2023-01-26T13:54:51.062Z,1.80
2023-01-26T13:57:32.769Z,1.90
2023-01-26T14:00:00.992Z,1.90
2023-01-26T14:02:39.307Z,1.90
2023-01-26T14:05:06.990Z,2.00
2023-01-26T14:07:43.313Z,1.90
2023-01-26T14:10:20.217Z,1.60
2023-01-26T14:12:51.988Z,1.70
2023-01-26T14:15:26.354Z,1.80
2023-01-26T14:18:01.075Z,1.90
2023-01-26T14:20:33.915Z,1.90
2023-01-26T14:23:23.254Z,1.80
2023-01-26T14:26:06.281Z,1.90
2023-01-26T14:28:36.793Z,2.00
2023-01-26T14:31:15.735Z,1.90
2023-01-26T14:33:42.716Z,1.70
2023-01-26T14:36:16.120Z,1.30
2023-01-26T14:38:45.627Z,1.10
2023-01-26T14:41:31.843Z,1.10
2023-01-26T14:44:04.041Z,1.20
2023-01-26T14:46:53.857Z,1.20
2023-01-26T14:49:57.171Z,1.50
2023-01-26T14:52:38.484Z,1.60
2023-01-26T14:55:29.625Z,1.60
2023-01-26T14:57:57.716Z,1.50
2023-01-26T15:00:32.880Z,1.50
2023-01-26T15:03:04.651Z,1.60
2023-01-26T15:05:37.508Z,1.60
2023-01-26T15:08:23.541Z,1.70
2023-01-26T15:11:15.935Z,1.70
2023-01-26T15:13:44.940Z,1.80
2023-01-26T15:16:16.395Z,1.70
2023-01-26T15:18:43.436Z,1.50
2023-01-26T15:21:21.738Z,1.60
2023-01-26T15:23:53.012Z,1.70
2023-01-26T15:26:22.710Z,1.70
2023-01-26T15:28:54.114Z,1.60
2023-01-26T15:31:28.867Z,1.60
2023-01-26T15:33:58.567Z,1.50
2023-01-26T15:36:48.630Z,1.40
2023-01-26T15:39:17.882Z,1.30
2023-01-26T15:42:01.769Z,1.40
2023-01-26T15:44:28.617Z,1.50
2023-01-26T15:46:56.523Z,1.40
2023-01-26T15:49:23.521Z,1.30
2023-01-26T15:51:52.004Z,1.30
2023-01-26T15:54:20.522Z,1.30
2023-01-26T15:56:47.233Z,1.00
2023-01-26T15:59:13.962Z,0.80
2023-01-26T16:01:40.785Z,0.80
2023-01-26T16:04:12.360Z,0.80
2023-01-26T16:06:39.371Z,0.80
2023-01-26T16:09:06.099Z,0.70
2023-01-26T16:11:37.039Z,0.60
2023-01-26T16:14:04.507Z,0.70
2023-01-26T16:16:32.528Z,0.80
2023-01-26T16:18:59.669Z,0.80
2023-01-26T16:21:31.415Z,0.90
2023-01-26T16:23:58.868Z,1.00
2023-01-26T16:26:28.084Z,1.20
2023-01-26T16:28:55.873Z,1.20
2023-01-26T16:31:24.327Z,1.10
2023-01-26T16:33:51.879Z,1.20
2023-01-26T16:36:20.037Z,1.00
2023-01-26T16:38:47.184Z,0.80
2023-01-26T16:41:22.987Z,0.50
2023-01-26T16:43:49.810Z,0.50
2023-01-26T16:46:16.635Z,0.70
2023-01-26T16:48:43.543Z,0.70
2023-01-26T16:51:29.981Z,0.60
2023-01-26T16:53:57.165Z,0.60
2023-01-26T16:56:25.110Z,0.60
2023-01-26T16:58:51.907Z,0.50
2023-01-26T17:01:24.954Z,0.50
2023-01-26T17:03:52.284Z,0.80
2023-01-26T17:06:19.628Z,0.80
2023-01-26T17:08:47.447Z,0.70
2023-01-26T17:11:22.420Z,0.70
2023-01-26T17:13:49.934Z,0.80
2023-01-26T17:16:25.880Z,0.90
2023-01-26T17:18:53.667Z,0.70
2023-01-26T17:21:21.050Z,0.80
2023-01-26T17:23:52.943Z,0.80
2023-01-26T17:26:21.165Z,1.00
2023-01-26T17:28:49.994Z,1.10
2023-01-26T17:31:19.471Z,1.10
2023-01-26T17:33:48.198Z,1.00
2023-01-26T17:36:16.598Z,0.80
2023-01-26T17:38:43.445Z,0.70
2023-01-26T17:41:10.652Z,0.70
2023-01-26T17:43:37.344Z,0.70
2023-01-26T17:46:11.591Z,0.70
2023-01-26T17:48:38.811Z,0.70
2023-01-26T17:51:11.105Z,0.60
2023-01-26T17:53:39.532Z,0.70
2023-01-26T17:56:10.849Z,0.70
2023-01-26T17:58:38.776Z,0.50
2023-01-26T18:01:07.565Z,0.70
2023-01-26T18:03:35.000Z,0.80
2023-01-26T18:06:02.106Z,0.90
2023-01-26T18:08:29.444Z,1.00
2023-01-26T18:11:04.554Z,1.00
2023-01-26T18:13:33.083Z,1.00
2023-01-26T18:16:00.305Z,0.90
2023-01-26T18:18:29.535Z,0.80
2023-01-26T18:20:56.982Z,0.60
2023-01-26T18:23:27.746Z,0.80
2023-01-26T18:25:54.740Z,0.80
2023-01-26T18:28:34.488Z,0.80
2023-01-26T18:31:13.286Z,0.70
2023-01-26T18:33:40.669Z,0.60
2023-01-26T18:36:15.646Z,0.90
2023-01-26T18:38:49.859Z,1.00
2023-01-26T18:41:25.347Z,0.90
2023-01-26T18:43:54.517Z,0.70
2023-01-26T18:46:22.404Z,0.50
2023-01-26T18:48:55.256Z,0.70
2023-01-26T18:51:25.045Z,0.70
2023-01-26T18:53:52.916Z,0.90
2023-01-26T18:56:26.279Z,1.00
2023-01-26T18:58:54.035Z,1.00
2023-01-26T19:01:28.031Z,0.90
2023-01-26T19:03:55.906Z,0.90
2023-01-26T19:06:28.648Z,1.10
2023-01-26T19:09:17.634Z,1.00
2023-01-26T19:11:44.661Z,0.80
2023-01-26T19:14:11.676Z,0.80
2023-01-26T19:16:38.795Z,0.90
2023-01-26T19:19:09.201Z,0.70
2023-01-26T19:21:36.184Z,0.80
2023-01-26T19:24:07.084Z,0.60
2023-01-26T19:26:45.293Z,0.50
2023-01-26T19:29:12.261Z,0.50
2023-01-26T19:31:39.158Z,0.70
2023-01-26T19:34:11.086Z,0.90
2023-01-26T19:36:41.160Z,0.80
2023-01-26T19:39:15.468Z,0.90
2023-01-26T19:41:48.356Z,0.90
2023-01-26T19:44:24.035Z,1.10
2023-01-26T19:46:54.461Z,1.10
2023-01-26T19:49:21.961Z,1.00
2023-01-26T19:51:53.969Z,1.10
2023-01-26T19:54:20.952Z,1.30
2023-01-26T19:56:52.145Z,1.10
2023-01-26T19:59:27.521Z,1.40
2023-01-26T20:01:59.967Z,1.40
2023-01-26T20:04:27.325Z,1.30
2023-01-26T20:06:54.910Z,1.40
2023-01-26T20:09:22.554Z,1.10
2023-01-26T20:11:52.157Z,0.80
2023-01-26T20:14:25.420Z,0.70
2023-01-26T20:16:54.987Z,0.80
2023-01-26T20:19:22.065Z,0.70
2023-01-26T20:21:49.218Z,0.80
2023-01-26T20:24:16.470Z,0.80
2023-01-26T20:26:44.848Z,0.80
2023-01-26T20:29:26.843Z,0.90
2023-01-26T20:31:53.952Z,0.90
2023-01-26T20:34:22.092Z,1.00
2023-01-26T20:36:49.756Z,1.00
2023-01-26T20:39:25.549Z,0.90
2023-01-26T20:41:57.919Z,0.90
2023-01-26T20:44:27.652Z,0.90
2023-01-26T20:46:58.994Z,1.10
2023-01-26T20:49:29.337Z,1.30
2023-01-26T20:51:57.366Z,1.00
2023-01-26T20:54:30.704Z,0.90
2023-01-26T20:56:58.123Z,0.70
2023-01-26T20:59:31.874Z,0.70
2023-01-26T21:02:04.216Z,0.90
2023-01-26T21:04:36.997Z,1.00
2023-01-26T21:07:14.740Z,0.90
2023-01-26T21:10:07.714Z,0.80
2023-01-26T21:12:38.718Z,0.70
2023-01-26T21:15:08.837Z,0.90
2023-01-26T21:17:38.996Z,0.90
2023-01-26T21:20:10.542Z,0.80
2023-01-26T21:22:38.447Z,0.80
2023-01-26T21:25:05.608Z,0.80
2023-01-26T21:27:34.867Z,0.70
2023-01-26T21:30:05.086Z,0.80
2023-01-26T21:32:40.056Z,0.70
2023-01-26T21:35:30.296Z,0.80
2023-01-26T21:38:08.045Z,0.80
2023-01-26T21:40:44.371Z,0.90
2023-01-26T21:43:11.256Z,0.90
2023-01-26T21:45:56.773Z,0.90
2023-01-26T21:48:38.574Z,0.90
2023-01-26T21:51:28.011Z,1.20
2023-01-26T21:53:56.330Z,1.00
2023-01-26T21:56:26.771Z,1.00
2023-01-26T21:58:57.585Z,1.10
2023-01-26T22:01:31.712Z,0.90
2023-01-26T22:04:00.789Z,0.90
2023-01-26T22:06:28.347Z,1.00
2023-01-26T22:08:55.897Z,1.10
2023-01-26T22:11:22.679Z,1.10
2023-01-26T22:13:49.673Z,1.10
2023-01-26T22:16:16.767Z,0.90
2023-01-26T22:18:45.924Z,0.90
2023-01-26T22:21:13.262Z,0.80
2023-01-26T22:23:40.919Z,0.50
2023-01-26T22:26:16.078Z,0.60
2023-01-26T22:28:49.929Z,0.80
2023-01-26T22:31:18.002Z,0.90
2023-01-26T22:33:45.166Z,1.00
2023-01-26T22:36:12.928Z,1.10
2023-01-26T22:38:39.722Z,1.00
2023-01-26T22:41:07.430Z,1.10
2023-01-26T22:43:34.988Z,1.20
2023-01-26T22:46:06.456Z,1.30
2023-01-26T22:48:33.803Z,1.40
2023-01-26T22:51:12.124Z,1.30
2023-01-26T22:53:39.526Z,1.30
2023-01-26T22:56:07.590Z,1.20
2023-01-26T22:58:39.774Z,1.10
2023-01-26T23:01:16.255Z,1.30
2023-01-26T23:03:46.209Z,1.30
2023-01-26T23:06:14.753Z,1.20
2023-01-26T23:08:42.454Z,1.10
2023-01-26T23:11:15.853Z,1.00
2023-01-26T23:13:43.775Z,1.10
2023-01-26T23:16:10.925Z,1.30
2023-01-26T23:18:38.158Z,1.20
2023-01-26T23:21:05.795Z,1.20
2023-01-26T23:23:33.004Z,1.20
2023-01-26T23:25:59.936Z,1.30
2023-01-26T23:28:32.533Z,1.40
2023-01-26T23:31:00.048Z,1.20
2023-01-26T23:33:28.754Z,1.00
2023-01-26T23:35:55.767Z,0.80
2023-01-26T23:38:24.489Z,1.00
2023-01-26T23:40:52.193Z,1.00
2023-01-26T23:43:19.998Z,1.00
2023-01-26T23:45:48.935Z,1.00
2023-01-26T23:48:19.506Z,1.00
2023-01-26T23:51:02.929Z,1.10
2023-01-26T23:53:31.408Z,0.80
2023-01-26T23:56:13.828Z,0.60
2023-01-26T23:58:43.903Z,0.70
